Time;durP1;ratioP1;P1;durP2;ratioP2;P2;SDS_P1;SDS_P2;PMS_P1;PMS_P2;Temp;Humidity;BMP_temperature;BMP_pressure;BME280_temperature;BME280_humidity;BME280_pressure;Samples;Min_cycle;Max_cycle;Signal;HPM_P1;HPM_P2
2022/07/24 00:01:02;;;;;;;24.50;20.80;;;24.30;81.70;;;;;;5035518;28;20428;-69
2022/07/24 00:03:27;;;;;;;23.67;21.27;;;24.30;81.80;;;;;;5034667;28;20029;-69
2022/07/24 00:05:53;;;;;;;24.42;19.88;;;24.20;82.10;;;;;;5035295;28;20034;-69
2022/07/24 00:08:18;;;;;;;24.35;20.33;;;24.20;82.20;;;;;;5035308;28;20065;-69
2022/07/24 00:10:44;;;;;;;22.42;20.38;;;24.20;82.40;;;;;;5035300;28;20025;-69
2022/07/24 00:13:10;;;;;;;23.55;19.98;;;24.20;82.40;;;;;;5034989;28;20079;-69
2022/07/24 00:15:35;;;;;;;22.42;20.15;;;24.10;82.60;;;;;;5035134;28;20045;-69
2022/07/24 00:18:01;;;;;;;23.38;20.92;;;24.10;82.40;;;;;;5034898;28;20474;-69
2022/07/24 00:20:26;;;;;;;23.73;21.38;;;24.10;82.70;;;;;;5035108;28;20103;-69
2022/07/24 00:22:52;;;;;;;23.63;20.42;;;24.10;82.70;;;;;;5034981;28;20018;-69
2022/07/24 00:25:17;;;;;;;21.75;19.48;;;24.00;82.90;;;;;;5034842;28;20478;-69
2022/07/24 00:27:43;;;;;;;24.23;21.73;;;24.00;83.00;;;;;;5033902;28;20021;-69
2022/07/24 00:30:09;;;;;;;24.67;22.10;;;24.00;83.10;;;;;;5033467;28;20083;-69
2022/07/24 00:32:35;;;;;;;24.92;20.75;;;24.00;82.90;;;;;;5034601;28;20048;-68
2022/07/24 00:35:00;;;;;;;24.27;21.75;;;24.00;82.90;;;;;;5034608;28;20048;-69
2022/07/24 00:37:27;;;;;;;24.58;22.08;;;24.00;82.90;;;;;;5034790;28;20026;-69
2022/07/24 00:39:52;;;;;;;25.42;22.98;;;24.00;83.00;;;;;;5034760;28;20025;-69
2022/07/24 00:42:20;;;;;;;26.67;24.05;;;23.90;83.20;;;;;;5034605;28;20423;-69
2022/07/24 00:44:46;;;;;;;25.50;22.88;;;23.90;83.40;;;;;;5034900;28;20171;-69
2022/07/24 00:47:11;;;;;;;24.23;21.63;;;23.90;83.30;;;;;;5033081;28;20104;-69
2022/07/24 00:49:37;;;;;;;26.08;23.17;;;23.90;83.20;;;;;;5034309;28;20033;-69
2022/07/24 00:52:03;;;;;;;24.58;21.98;;;23.90;83.30;;;;;;5034378;28;20022;-69
2022/07/24 00:54:29;;;;;;;26.67;22.55;;;23.80;83.60;;;;;;5032966;28;20487;-69
2022/07/24 00:56:55;;;;;;;25.42;22.80;;;23.80;83.40;;;;;;5034335;28;20371;-69
2022/07/24 00:59:22;;;;;;;26.25;21.75;;;23.80;83.40;;;;;;5034035;28;20486;-68
2022/07/24 01:01:48;;;;;;;25.40;21.27;;;23.80;83.50;;;;;;5034109;28;20072;-69
2022/07/24 01:04:15;;;;;;;25.67;21.90;;;23.80;83.50;;;;;;5033837;28;20080;-69
2022/07/24 01:06:44;;;;;;;25.17;22.33;;;23.70;83.60;;;;;;5034277;28;20032;-69
2022/07/24 01:09:11;;;;;;;25.05;22.55;;;23.70;83.90;;;;;;5034008;28;20478;-69
2022/07/24 01:11:40;;;;;;;26.42;22.23;;;23.70;84.00;;;;;;5033993;28;20022;-69
2022/07/24 01:14:06;;;;;;;26.10;21.50;;;23.70;84.00;;;;;;5034087;28;20025;-69
2022/07/24 01:16:33;;;;;;;23.92;21.05;;;23.70;84.00;;;;;;5033669;28;20017;-69
2022/07/24 01:18:58;;;;;;;28.20;21.92;;;23.70;83.90;;;;;;5033992;28;20017;-69
2022/07/24 01:21:25;;;;;;;25.35;20.35;;;23.70;83.90;;;;;;5033731;28;20546;-69
2022/07/24 01:23:50;;;;;;;25.05;21.77;;;23.70;83.80;;;;;;5033819;28;20030;-69
2022/07/24 01:26:16;;;;;;;23.45;20.23;;;23.70;83.60;;;;;;5033712;28;20029;-68
2022/07/24 01:28:42;;;;;;;21.13;19.13;;;23.60;83.60;;;;;;5033950;28;20053;-69
2022/07/24 01:31:07;;;;;;;24.80;21.00;;;23.60;83.50;;;;;;5033266;28;20033;-69
2022/07/24 01:33:33;;;;;;;20.50;18.65;;;23.70;83.40;;;;;;5033633;28;20033;-69
2022/07/24 01:35:58;;;;;;;22.08;19.05;;;23.70;83.00;;;;;;5033594;28;20048;-69
2022/07/24 01:38:24;;;;;;;23.50;18.83;;;23.60;82.90;;;;;;5033447;28;20467;-69
2022/07/24 01:40:49;;;;;;;21.20;18.88;;;23.60;83.00;;;;;;5033543;28;20037;-69
2022/07/24 01:43:15;;;;;;;22.17;19.77;;;23.60;83.30;;;;;;5033527;28;20021;-69
2022/07/24 01:45:41;;;;;;;21.35;19.02;;;23.50;83.40;;;;;;5033062;28;20112;-69
2022/07/24 01:48:06;;;;;;;23.63;19.60;;;23.50;83.30;;;;;;5033623;28;20029;-69
2022/07/24 01:50:32;;;;;;;23.55;19.52;;;23.50;83.40;;;;;;5033231;28;20025;-69
2022/07/24 01:52:58;;;;;;;21.75;19.42;;;23.60;83.20;;;;;;5033341;28;20422;-69
2022/07/24 01:55:24;;;;;;;23.42;19.42;;;23.50;83.40;;;;;;5033388;28;20083;-69
2022/07/24 01:57:50;;;;;;;27.45;19.13;;;23.40;83.40;;;;;;5032970;28;20030;-68
2022/07/24 02:00:16;;;;;;;21.27;18.60;;;23.50;83.10;;;;;;5033268;28;20032;-69
2022/07/24 02:02:43;;;;;;;21.73;18.52;;;23.40;82.70;;;;;;5033125;28;20482;-69
2022/07/24 02:05:12;;;;;;;19.70;16.73;;;23.40;82.30;;;;;;5033115;28;20033;-69
2022/07/24 02:07:38;;;;;;;24.40;17.00;;;23.40;81.90;;;;;;5033377;28;20021;-69
2022/07/24 02:10:04;;;;;;;16.73;15.13;;;23.40;81.70;;;;;;5033081;28;20475;-69
2022/07/24 02:12:30;;;;;;;20.42;16.33;;;23.30;82.00;;;;;;5032605;28;20105;-69
2022/07/24 02:14:56;;;;;;;17.15;14.82;;;23.20;81.90;;;;;;5031987;28;20028;-69
2022/07/24 02:17:21;;;;;;;18.70;15.25;;;23.20;82.10;;;;;;5032991;28;20028;-69
2022/07/24 02:19:47;;;;;;;17.25;15.20;;;23.20;81.50;;;;;;5033140;28;20471;-69
2022/07/24 02:22:13;;;;;;;15.95;13.63;;;23.20;81.40;;;;;;5033020;28;20022;-69
2022/07/24 02:24:38;;;;;;;18.00;13.57;;;23.10;81.40;;;;;;5033013;28;20406;-69
2022/07/24 02:27:04;;;;;;;19.35;13.90;;;23.10;81.30;;;;;;5032466;28;20473;-69
2022/07/24 02:29:29;;;;;;;15.40;13.90;;;23.10;81.60;;;;;;5038645;28;20029;-69
2022/07/24 02:31:55;;;;;;;19.63;15.35;;;23.00;81.90;;;;;;5052663;28;20017;-69
2022/07/24 02:34:20;;;;;;;20.05;16.90;;;23.00;82.00;;;;;;5051641;28;20029;-69
2022/07/24 02:36:46;;;;;;;20.27;18.23;;;23.00;82.30;;;;;;5052071;28;20029;-69
2022/07/24 02:39:12;;;;;;;24.73;20.27;;;23.00;82.70;;;;;;5052957;28;20025;-68
2022/07/24 02:41:37;;;;;;;22.30;20.00;;;22.90;83.20;;;;;;5052308;28;20394;-69
2022/07/24 02:44:03;;;;;;;23.63;20.10;;;22.90;83.50;;;;;;5052546;28;20505;-68
2022/07/24 02:46:29;;;;;;;22.67;20.35;;;22.90;83.70;;;;;;5051261;28;20021;-69
2022/07/24 02:48:54;;;;;;;24.17;21.67;;;22.90;83.90;;;;;;5052849;28;20127;-69
2022/07/24 02:51:20;;;;;;;23.00;20.60;;;22.90;83.80;;;;;;5054478;28;20029;-69
2022/07/24 02:53:45;;;;;;;23.20;20.90;;;22.90;83.90;;;;;;5056482;28;20021;-69
2022/07/24 02:56:11;;;;;;;24.95;21.10;;;22.90;83.80;;;;;;5056053;28;20466;-70
2022/07/24 02:58:37;;;;;;;21.92;19.40;;;22.80;84.00;;;;;;5056593;28;20501;-69
2022/07/24 03:01:03;;;;;;;19.88;17.92;;;22.80;84.10;;;;;;5056548;28;20029;-68
2022/07/24 03:03:28;;;;;;;22.80;18.88;;;22.80;83.80;;;;;;5056188;28;20100;-68
2022/07/24 03:05:54;;;;;;;22.55;18.33;;;22.80;83.90;;;;;;5056565;28;20494;-68
2022/07/24 03:08:19;;;;;;;19.33;17.42;;;22.70;83.90;;;;;;5056431;28;20036;-69
2022/07/24 03:10:45;;;;;;;19.55;17.40;;;22.70;84.10;;;;;;5054981;28;20466;-69
2022/07/24 03:13:12;;;;;;;19.13;17.30;;;22.70;83.90;;;;;;5054995;28;20025;-69
2022/07/24 03:15:37;;;;;;;20.33;16.52;;;22.60;83.90;;;;;;5056145;28;20388;-69
2022/07/24 03:18:03;;;;;;;19.38;17.30;;;22.60;83.70;;;;;;5056245;28;20470;-70
2022/07/24 03:20:29;;;;;;;19.92;17.88;;;22.60;83.90;;;;;;5056310;28;20055;-69
2022/07/24 03:22:56;;;;;;;19.55;17.70;;;22.70;83.80;;;;;;5056107;28;20535;-68
2022/07/24 03:25:23;;;;;;;22.77;18.73;;;22.60;83.80;;;;;;5055751;28;20040;-69
2022/07/24 03:27:49;;;;;;;19.63;17.50;;;22.60;83.80;;;;;;5056003;28;20083;-69
2022/07/24 03:30:16;;;;;;;20.08;18.05;;;22.60;83.90;;;;;;5056013;28;20025;-68
2022/07/24 03:32:42;;;;;;;20.38;18.33;;;22.60;84.10;;;;;;5055758;28;20025;-69
2022/07/24 03:35:08;;;;;;;21.38;19.25;;;22.50;84.30;;;;;;5055844;28;20102;-69
2022/07/24 03:37:34;;;;;;;20.58;18.17;;;22.50;84.30;;;;;;5055650;28;20104;-69
2022/07/24 03:39:59;;;;;;;19.85;17.73;;;22.40;84.40;;;;;;5055579;28;20466;-69
2022/07/24 03:42:25;;;;;;;19.77;16.10;;;22.40;84.40;;;;;;5054273;28;20541;-69
2022/07/24 03:44:51;;;;;;;19.63;15.90;;;22.40;84.20;;;;;;5055705;28;20112;-69
2022/07/24 03:47:16;;;;;;;18.52;16.17;;;22.40;84.20;;;;;;5055823;28;20025;-69
2022/07/24 03:49:42;;;;;;;18.92;15.18;;;22.40;84.00;;;;;;5055524;28;20360;-69
2022/07/24 03:52:08;;;;;;;17.80;15.75;;;22.40;83.70;;;;;;5055730;28;20130;-69
2022/07/24 03:54:33;;;;;;;17.75;15.85;;;22.30;83.70;;;;;;5054991;28;20489;-68
2022/07/24 03:56:59;;;;;;;20.10;16.70;;;22.40;83.50;;;;;;5055578;28;20102;-69
2022/07/24 03:59:24;;;;;;;17.40;15.70;;;22.40;83.50;;;;;;5055312;28;20029;-69
2022/07/24 04:01:50;;;;;;;21.20;16.35;;;22.30;83.70;;;;;;5054841;28;20013;-69
2022/07/24 04:04:16;;;;;;;18.25;15.80;;;22.30;83.80;;;;;;5054497;28;20087;-69
2022/07/24 04:06:41;;;;;;;17.45;15.50;;;22.30;83.90;;;;;;5055326;28;20409;-69
2022/07/24 04:09:07;;;;;;;17.95;16.08;;;22.30;83.90;;;;;;5054964;28;20493;-69
2022/07/24 04:11:33;;;;;;;16.23;14.55;;;22.30;84.00;;;;;;5055047;28;20028;-69
2022/07/24 04:13:59;;;;;;;17.48;15.75;;;22.20;84.00;;;;;;5055078;28;20036;-69
2022/07/24 04:16:25;;;;;;;18.48;16.45;;;22.30;84.10;;;;;;5055140;28;20024;-69
2022/07/24 04:18:50;;;;;;;17.42;15.60;;;22.30;83.90;;;;;;5054930;28;20017;-68
2022/07/24 04:21:16;;;;;;;18.08;14.95;;;22.30;83.80;;;;;;5054977;28;20032;-69
2022/07/24 04:23:42;;;;;;;17.80;14.40;;;22.20;83.70;;;;;;5054279;28;20032;-69
2022/07/24 04:26:08;;;;;;;16.20;14.45;;;22.20;83.60;;;;;;5054987;28;20028;-69
2022/07/24 04:28:33;;;;;;;16.92;15.13;;;22.20;83.90;;;;;;5054609;28;20025;-69
2022/07/24 04:30:59;;;;;;;16.67;14.73;;;22.20;84.00;;;;;;5054839;28;20033;-69
2022/07/24 04:33:24;;;;;;;15.18;13.63;;;22.10;84.00;;;;;;5054715;28;20017;-69
2022/07/24 04:35:50;;;;;;;15.10;13.60;;;22.20;83.90;;;;;;5054457;28;20107;-68
2022/07/24 04:38:16;;;;;;;14.38;13.05;;;22.20;83.70;;;;;;5054684;28;20025;-69
2022/07/24 04:40:42;;;;;;;19.20;13.70;;;22.20;83.80;;;;;;5051187;28;20470;-69
2022/07/24 04:43:07;;;;;;;14.73;13.20;;;22.40;82.70;;;;;;5038461;28;20033;-69
2022/07/24 04:45:33;;;;;;;16.50;13.38;;;22.60;82.00;;;;;;5040445;28;20037;-69
2022/07/24 04:47:59;;;;;;;15.25;13.25;;;22.60;81.50;;;;;;5047965;28;20467;-68
2022/07/24 04:50:24;;;;;;;15.60;13.00;;;22.70;81.30;;;;;;5035680;28;20029;-69
2022/07/24 04:52:50;;;;;;;15.57;12.82;;;22.70;81.10;;;;;;5048121;28;20028;-68
2022/07/24 04:55:15;;;;;;;16.98;12.80;;;22.80;81.00;;;;;;5036355;28;20037;-68
2022/07/24 04:57:41;;;;;;;14.02;12.68;;;22.80;81.00;;;;;;5037938;28;20032;-68
2022/07/24 05:00:10;;;;;;;14.23;12.73;;;22.80;81.00;;;;;;5052032;28;20387;-68
2022/07/24 05:02:35;;;;;;;14.43;12.30;;;22.80;81.10;;;;;;5045677;28;20017;-68
2022/07/24 05:05:01;;;;;;;14.88;12.35;;;22.80;81.10;;;;;;5033621;28;20438;-68
2022/07/24 05:07:27;;;;;;;14.20;11.93;;;22.80;81.30;;;;;;5033129;28;20025;-68
2022/07/24 05:09:52;;;;;;;14.15;12.38;;;22.80;81.20;;;;;;5034099;28;20029;-68
2022/07/24 05:12:18;;;;;;;14.45;12.00;;;22.80;81.20;;;;;;5033351;28;20076;-68
2022/07/24 05:14:44;;;;;;;12.90;11.57;;;22.80;81.30;;;;;;5039463;28;20028;-68
2022/07/24 05:17:09;;;;;;;13.90;12.48;;;22.80;81.30;;;;;;5044986;28;20025;-68
2022/07/24 05:19:35;;;;;;;13.68;11.55;;;22.80;81.40;;;;;;5035790;28;20021;-68
2022/07/24 05:22:00;;;;;;;13.88;12.48;;;22.80;81.50;;;;;;5033259;28;20021;-68
2022/07/24 05:24:26;;;;;;;15.70;12.63;;;22.80;81.60;;;;;;5033149;28;20033;-68
2022/07/24 05:26:53;;;;;;;15.00;12.15;;;22.80;81.70;;;;;;5033482;28;20025;-68
2022/07/24 05:29:19;;;;;;;14.18;11.85;;;22.80;81.60;;;;;;5032121;28;20028;-68
2022/07/24 05:31:44;;;;;;;13.25;11.55;;;22.80;81.50;;;;;;5033128;28;20022;-68
2022/07/24 05:34:10;;;;;;;13.80;11.98;;;22.90;81.70;;;;;;5032167;28;20462;-68
2022/07/24 05:36:36;;;;;;;16.05;11.73;;;22.90;81.90;;;;;;5032747;28;20033;-68
2022/07/24 05:39:02;;;;;;;13.02;11.60;;;22.90;81.90;;;;;;5033076;28;20021;-68
2022/07/24 05:41:27;;;;;;;12.45;10.93;;;22.80;81.90;;;;;;5031349;28;20017;-68
2022/07/24 05:43:53;;;;;;;14.05;10.95;;;22.90;81.80;;;;;;5033586;28;20029;-68
2022/07/24 05:46:19;;;;;;;11.50;10.35;;;22.90;81.90;;;;;;5033263;28;20060;-68
2022/07/24 05:48:45;;;;;;;11.38;9.95;;;22.90;81.90;;;;;;5040595;28;20550;-68
2022/07/24 05:51:11;;;;;;;15.98;10.43;;;22.90;82.00;;;;;;5043219;28;20067;-68
2022/07/24 05:53:36;;;;;;;12.85;11.15;;;22.90;82.60;;;;;;5049811;28;20041;-68
2022/07/24 05:56:03;;;;;;;11.13;9.50;;;23.00;82.90;;;;;;5032486;28;20025;-68
2022/07/24 05:58:29;;;;;;;15.30;10.90;;;23.10;83.40;;;;;;5033837;28;20036;-68
2022/07/24 06:00:54;;;;;;;9.82;8.10;;;23.10;83.90;;;;;;5037093;28;20054;-68
2022/07/24 06:03:20;;;;;;;14.52;9.95;;;23.10;84.40;;;;;;5036125;28;20470;-67
2022/07/24 06:05:45;;;;;;;10.63;9.27;;;23.10;84.60;;;;;;5034507;28;20041;-68
2022/07/24 06:08:11;;;;;;;9.75;7.88;;;23.20;84.90;;;;;;5033842;28;20025;-68
2022/07/24 06:10:37;;;;;;;10.18;8.63;;;23.30;84.50;;;;;;5033475;28;20049;-68
2022/07/24 06:13:02;;;;;;;8.82;7.45;;;23.30;84.40;;;;;;5045073;28;20024;-68
2022/07/24 06:15:29;;;;;;;11.35;6.63;;;23.40;84.00;;;;;;5048205;28;20091;-68
2022/07/24 06:17:54;;;;;;;12.30;6.20;;;23.60;82.40;;;;;;5034402;28;20463;-68
2022/07/24 06:20:20;;;;;;;10.30;6.07;;;23.60;82.30;;;;;;5034351;28;20083;-68
2022/07/24 06:22:46;;;;;;;5.50;4.20;;;23.60;82.30;;;;;;5032268;28;20049;-68
2022/07/24 06:25:12;;;;;;;7.95;4.35;;;23.60;82.50;;;;;;5032748;28;20038;-68
2022/07/24 06:27:46;;;;;;;5.90;4.57;;;23.60;82.70;;;;;;5044423;28;20017;-68
2022/07/24 06:30:21;;;;;;;7.05;4.07;;;23.60;82.50;;;;;;5037872;28;20510;-68
2022/07/24 06:32:48;;;;;;;7.55;4.32;;;23.70;82.30;;;;;;5036374;28;20032;-68
2022/07/24 06:35:14;;;;;;;6.75;4.15;;;23.70;82.30;;;;;;5036058;28;20029;-68
2022/07/24 06:37:40;;;;;;;6.78;4.00;;;23.70;82.20;;;;;;5036347;28;20391;-68
2022/07/24 06:40:06;;;;;;;6.13;4.50;;;23.80;82.00;;;;;;5036088;28;20040;-68
2022/07/24 06:42:32;;;;;;;6.28;3.60;;;23.90;81.70;;;;;;5047085;28;20466;-68
2022/07/24 06:44:58;;;;;;;8.60;4.20;;;24.00;81.70;;;;;;5036840;28;20033;-68
2022/07/24 06:47:25;;;;;;;7.05;4.30;;;24.00;81.50;;;;;;5037090;28;20116;-69
2022/07/24 06:49:51;;;;;;;4.85;3.70;;;24.00;81.20;;;;;;5035875;28;20481;-68
2022/07/24 06:52:17;;;;;;;3.95;3.55;;;24.10;81.10;;;;;;5049401;28;20017;-68
2022/07/24 06:54:43;;;;;;;5.70;3.97;;;24.10;81.00;;;;;;5044443;28;20040;-68
2022/07/24 06:57:08;;;;;;;6.60;3.17;;;24.20;80.90;;;;;;5038391;28;20025;-68
2022/07/24 06:59:34;;;;;;;3.28;2.92;;;24.30;80.90;;;;;;5037984;28;20118;-68
2022/07/24 07:01:59;;;;;;;6.05;3.03;;;24.30;80.80;;;;;;5047325;28;20068;-68
2022/07/24 07:04:25;;;;;;;8.40;3.13;;;24.30;80.40;;;;;;5036831;28;20033;-68
2022/07/24 07:06:50;;;;;;;6.13;3.10;;;24.40;80.30;;;;;;5035716;28;20033;-68
2022/07/24 07:09:16;;;;;;;5.20;2.80;;;24.40;80.00;;;;;;5035262;28;20022;-68
2022/07/24 07:11:41;;;;;;;8.68;3.22;;;24.50;79.70;;;;;;5035657;28;20022;-68
2022/07/24 07:14:07;;;;;;;3.65;2.78;;;24.50;79.40;;;;;;5035714;28;20029;-68
2022/07/24 07:16:32;;;;;;;3.45;2.85;;;24.60;79.20;;;;;;5036033;28;20029;-68
2022/07/24 07:18:58;;;;;;;4.55;2.63;;;24.60;79.10;;;;;;5045384;28;20012;-68
2022/07/24 07:21:24;;;;;;;4.32;2.83;;;24.60;78.90;;;;;;5044583;28;20079;-68
2022/07/24 07:23:49;;;;;;;3.40;3.03;;;24.70;78.70;;;;;;5054959;28;20025;-68
2022/07/24 07:26:15;;;;;;;3.80;2.60;;;24.80;78.40;;;;;;5036238;28;20493;-68
2022/07/24 07:28:40;;;;;;;4.93;3.08;;;24.80;78.20;;;;;;5034969;28;20566;-68
2022/07/24 07:31:06;;;;;;;4.78;2.40;;;24.80;78.20;;;;;;5039750;28;20526;-68
2022/07/24 07:33:32;;;;;;;5.70;2.40;;;24.90;77.60;;;;;;5035561;28;20724;-68
2022/07/24 07:35:57;;;;;;;4.05;2.67;;;25.00;76.90;;;;;;5035332;28;20032;-68
2022/07/24 07:38:23;;;;;;;5.53;2.58;;;25.00;76.20;;;;;;5035917;28;20475;-68
2022/07/24 07:40:48;;;;;;;4.78;2.22;;;25.00;76.50;;;;;;5039325;28;20437;-68
2022/07/24 07:43:14;;;;;;;3.70;2.08;;;25.00;75.90;;;;;;5036481;28;20037;-68
2022/07/24 07:45:39;;;;;;;3.88;2.38;;;25.10;75.00;;;;;;5040534;28;20497;-68
2022/07/24 07:48:05;;;;;;;3.20;2.20;;;25.10;74.90;;;;;;5035174;28;20075;-68
2022/07/24 07:50:31;;;;;;;3.33;2.20;;;25.10;74.60;;;;;;5041227;28;20482;-68
2022/07/24 07:52:56;;;;;;;3.33;2.15;;;25.10;74.50;;;;;;5044303;28;20379;-68
2022/07/24 07:55:22;;;;;;;3.65;2.60;;;25.10;74.50;;;;;;5040058;28;20048;-68
2022/07/24 07:57:48;;;;;;;2.45;1.75;;;25.20;74.20;;;;;;5040141;28;20037;-68
2022/07/24 08:00:14;;;;;;;3.10;1.92;;;25.20;74.20;;;;;;5040743;28;20029;-68
2022/07/24 08:02:40;;;;;;;3.95;2.20;;;25.20;74.10;;;;;;5044920;28;20029;-67
2022/07/24 08:05:06;;;;;;;3.50;1.65;;;25.30;73.90;;;;;;5043498;28;20052;-68
2022/07/24 08:07:32;;;;;;;2.55;1.90;;;25.30;73.40;;;;;;5042674;28;20108;-68
2022/07/24 08:09:58;;;;;;;3.42;2.00;;;25.30;73.10;;;;;;5043060;28;20068;-68
2022/07/24 08:12:24;;;;;;;2.42;1.88;;;25.30;73.00;;;;;;5041434;28;20541;-67
2022/07/24 08:14:49;;;;;;;3.22;2.08;;;25.40;72.70;;;;;;5041374;28;20032;-67
2022/07/24 08:17:15;;;;;;;4.93;1.98;;;25.40;72.20;;;;;;5042666;28;20148;-67
2022/07/24 08:19:41;;;;;;;3.60;2.50;;;25.30;72.10;;;;;;5037854;28;20462;-67
2022/07/24 08:22:07;;;;;;;5.07;2.05;;;25.40;72.10;;;;;;5049933;28;20490;-67
2022/07/24 08:24:33;;;;;;;2.90;1.90;;;25.40;71.90;;;;;;5048351;28;20052;-67
2022/07/24 08:26:59;;;;;;;2.92;2.10;;;25.50;71.70;;;;;;5046338;28;20033;-67
2022/07/24 08:29:25;;;;;;;3.08;2.20;;;25.50;71.90;;;;;;5050762;28;20024;-67
2022/07/24 08:31:51;;;;;;;4.85;2.13;;;25.50;71.70;;;;;;5058191;28;20028;-67
2022/07/24 08:34:17;;;;;;;3.72;1.95;;;25.50;71.70;;;;;;5058126;28;20075;-67
2022/07/24 08:36:45;;;;;;;3.92;1.60;;;25.50;71.70;;;;;;5038736;28;20060;-67
2022/07/24 08:39:12;;;;;;;3.17;2.05;;;25.50;71.90;;;;;;5038482;28;20029;-67
2022/07/24 08:41:38;;;;;;;3.67;1.70;;;25.50;71.50;;;;;;5051435;28;20082;-67
2022/07/24 08:44:05;;;;;;;3.20;1.98;;;25.50;71.60;;;;;;5048344;28;20041;-67
2022/07/24 08:46:32;;;;;;;6.10;2.05;;;25.60;71.60;;;;;;5047092;28;20082;-67
2022/07/24 08:48:58;;;;;;;4.68;1.67;;;25.50;71.70;;;;;;5050422;28;20051;-67
2022/07/24 08:51:31;;;;;;;2.80;2.03;;;25.60;71.70;;;;;;5050984;28;20025;-67
2022/07/24 08:53:56;;;;;;;2.22;1.50;;;25.60;71.50;;;;;;5062899;28;20086;-67
2022/07/24 08:56:22;;;;;;;5.15;1.80;;;25.60;71.40;;;;;;5046758;28;20390;-67
2022/07/24 08:58:48;;;;;;;3.60;2.08;;;25.70;71.40;;;;;;5041429;28;20042;-67
2022/07/24 09:01:14;;;;;;;2.13;1.90;;;25.70;71.20;;;;;;5047176;28;20020;-68
2022/07/24 09:03:44;;;;;;;6.78;2.10;;;25.60;71.10;;;;;;5045644;28;20037;-67
2022/07/24 09:06:11;;;;;;;3.28;1.75;;;25.70;71.40;;;;;;5044943;28;20044;-67
2022/07/24 09:08:42;;;;;;;3.55;2.10;;;25.70;71.20;;;;;;5042547;28;20564;-67
2022/07/24 09:11:09;;;;;;;3.13;1.85;;;25.70;71.10;;;;;;5041388;28;20029;-67
2022/07/24 09:16:22;;;;;;;6.30;1.95;;;25.80;71.00;;;;;;5043623;28;20462;-67
2022/07/24 09:18:50;;;;;;;6.57;1.92;;;25.90;70.80;;;;;;5042020;28;20032;-68
2022/07/24 09:21:17;;;;;;;5.75;2.10;;;25.90;71.10;;;;;;5041417;28;20108;-71
2022/07/24 09:23:44;;;;;;;4.85;2.08;;;25.80;71.30;;;;;;5038839;28;20033;-78
2022/07/24 09:26:10;;;;;;;10.35;2.08;;;25.90;71.40;;;;;;5047190;28;20029;-79
2022/07/24 09:28:50;;;;;;;6.35;1.92;;;25.90;71.80;;;;;;5034665;28;20056;-68
2022/07/24 09:31:16;;;;;;;6.43;2.20;;;25.90;72.20;;;;;;5037223;28;20489;-71
2022/07/24 09:33:42;;;;;;;6.47;1.98;;;25.80;72.30;;;;;;5048029;28;20029;-71
2022/07/24 09:36:16;;;;;;;6.25;1.95;;;25.80;72.10;;;;;;5045892;28;20111;-78
2022/07/24 09:38:49;;;;;;;9.73;2.22;;;25.80;72.30;;;;;;5039824;28;20112;-73
2022/07/24 09:41:23;;;;;;;7.75;2.03;;;25.80;72.40;;;;;;5038675;28;20029;-75
2022/07/24 09:44:02;;;;;;;8.43;2.17;;;25.80;72.30;;;;;;5043589;28;20025;-78
2022/07/24 09:46:29;;;;;;;11.57;1.98;;;25.80;72.40;;;;;;5038441;28;20033;-70
2022/07/24 09:48:57;;;;;;;6.13;1.88;;;25.80;72.10;;;;;;5044457;28;20049;-68
2022/07/24 09:51:27;;;;;;;5.95;1.90;;;25.90;72.20;;;;;;5043932;28;20075;-71
2022/07/24 09:53:58;;;;;;;6.07;2.00;;;25.90;72.00;;;;;;5045868;28;20024;-77
2022/07/24 09:56:25;;;;;;;3.33;1.45;;;25.90;72.10;;;;;;5037759;28;20030;-77
2022/07/24 09:58:53;;;;;;;6.97;2.05;;;25.90;72.20;;;;;;5037826;28;20028;-77
2022/07/24 10:01:24;;;;;;;3.30;1.70;;;25.90;71.90;;;;;;5045743;28;20070;-78
2022/07/24 10:03:51;;;;;;;6.82;2.00;;;25.90;71.90;;;;;;5049435;28;20436;-69
2022/07/24 10:06:20;;;;;;;4.13;2.05;;;25.90;71.80;;;;;;5040291;28;20151;-72
2022/07/24 10:08:48;;;;;;;3.95;1.80;;;25.90;71.90;;;;;;5051842;28;20036;-78
2022/07/24 10:11:14;;;;;;;3.83;1.65;;;25.90;71.80;;;;;;5049483;28;20032;-78
2022/07/24 10:13:40;;;;;;;2.80;1.48;;;25.90;71.70;;;;;;5043971;28;20029;-79
2022/07/24 10:16:12;;;;;;;3.67;1.73;;;25.90;71.70;;;;;;5051801;28;20013;-78
2022/07/24 10:19:03;;;;;;;8.05;2.15;;;25.90;71.60;;;;;;5066379;28;20168;-68
2022/07/24 10:21:34;;;;;;;3.75;1.80;;;25.90;71.60;;;;;;5046010;28;20474;-68
2022/07/24 10:24:05;;;;;;;2.67;1.50;;;25.90;71.70;;;;;;5048046;28;20026;-71
2022/07/24 10:26:36;;;;;;;4.63;1.95;;;25.90;71.70;;;;;;5047934;28;20037;-71
2022/07/24 10:29:12;;;;;;;3.25;1.92;;;25.90;71.70;;;;;;5043491;28;20057;-68
2022/07/24 10:31:40;;;;;;;3.17;1.67;;;25.90;72.40;;;;;;5048438;28;20116;-68
2022/07/24 10:34:24;;;;;;;2.95;1.77;;;25.90;71.70;;;;;;5046769;28;20032;-73
2022/07/24 10:37:27;;;;;;;4.25;1.83;;;25.90;71.70;;;;;;5042500;28;20033;-69
2022/07/24 10:40:01;;;;;;;3.25;1.90;;;25.90;71.60;;;;;;5048390;28;20041;-68
2022/07/24 10:42:26;;;;;;;3.67;1.83;;;25.90;71.60;;;;;;5047480;28;20385;-68
2022/07/24 10:45:16;;;;;;;1.70;1.50;;;25.90;71.70;;;;;;5036932;28;20037;-69
2022/07/24 10:47:42;;;;;;;2.30;1.75;;;25.90;71.50;;;;;;5039471;28;20039;-72
2022/07/24 10:50:08;;;;;;;2.45;1.70;;;26.00;71.50;;;;;;5033416;28;20021;-69
2022/07/24 10:52:36;;;;;;;5.70;1.88;;;25.90;71.50;;;;;;5044331;28;20481;-71
2022/07/24 10:55:32;;;;;;;2.85;2.05;;;25.90;71.60;;;;;;5031968;28;20049;-72
2022/07/24 10:58:21;;;;;;;3.22;1.70;;;26.00;71.60;;;;;;5034519;28;20386;-69
2022/07/24 11:00:48;;;;;;;3.28;1.42;;;26.00;71.80;;;;;;5050252;28;20484;-74
2022/07/24 11:03:21;;;;;;;2.50;1.70;;;26.00;71.90;;;;;;5046712;28;20097;-75
2022/07/24 11:06:07;;;;;;;1.73;1.45;;;26.00;71.90;;;;;;5042488;28;20044;-72
2022/07/24 11:08:54;;;;;;;2.80;1.95;;;26.00;72.20;;;;;;5045739;28;20024;-78
2022/07/24 11:11:21;;;;;;;4.15;1.90;;;26.00;72.60;;;;;;5044143;28;20515;-69
2022/07/24 11:13:51;;;;;;;2.05;1.70;;;26.00;72.80;;;;;;5043866;28;20026;-77
2022/07/24 11:16:18;;;;;;;6.60;1.95;;;26.10;73.40;;;;;;5041766;28;20086;-73
2022/07/24 11:18:50;;;;;;;4.97;1.50;;;26.10;74.30;;;;;;5054980;28;20529;-68
2022/07/24 11:21:36;;;;;;;3.05;2.17;;;26.10;74.70;;;;;;5050075;28;20025;-69
2022/07/24 11:24:14;;;;;;;2.88;2.00;;;26.10;74.70;;;;;;5038438;28;20071;-68
2022/07/24 11:26:49;;;;;;;2.72;2.00;;;26.10;75.80;;;;;;5043782;28;20048;-68
2022/07/24 11:29:21;;;;;;;4.28;2.17;;;26.10;75.90;;;;;;5034962;28;20026;-69
2022/07/24 11:31:53;;;;;;;4.75;2.30;;;26.10;75.80;;;;;;5052151;28;20021;-69
2022/07/24 11:34:19;;;;;;;4.13;1.60;;;26.20;75.60;;;;;;5038334;28;20087;-69
2022/07/24 11:36:47;;;;;;;3.20;2.20;;;26.20;75.60;;;;;;5040939;28;20033;-69
2022/07/24 11:39:18;;;;;;;2.08;1.88;;;26.20;75.60;;;;;;5035657;28;20024;-68
2022/07/24 11:41:49;;;;;;;2.03;1.52;;;26.20;75.40;;;;;;5041943;28;20160;-71
2022/07/24 11:44:23;;;;;;;3.72;1.90;;;26.30;75.40;;;;;;5051812;28;20469;-70
2022/07/24 11:46:48;;;;;;;4.18;2.33;;;26.30;75.50;;;;;;5037170;28;20474;-69
2022/07/24 11:49:14;;;;;;;3.85;1.85;;;26.30;75.50;;;;;;5050330;28;20029;-70
2022/07/24 11:51:43;;;;;;;4.55;1.55;;;26.30;75.00;;;;;;5039100;28;20051;-72
2022/07/24 11:54:11;;;;;;;4.88;1.92;;;26.30;74.30;;;;;;5053488;28;20035;-71
2022/07/24 11:56:37;;;;;;;2.33;1.90;;;26.40;73.80;;;;;;5041151;28;20120;-73
2022/07/24 11:59:03;;;;;;;4.43;2.20;;;26.40;74.10;;;;;;5043526;28;20398;-68
2022/07/24 12:01:28;;;;;;;2.75;1.83;;;26.40;74.70;;;;;;5040098;28;20075;-68
2022/07/24 12:03:57;;;;;;;2.58;1.50;;;26.40;74.70;;;;;;5037803;28;20037;-68
2022/07/24 12:06:23;;;;;;;4.03;2.05;;;26.40;73.70;;;;;;5046613;28;20029;-75
2022/07/24 12:08:49;;;;;;;4.82;1.98;;;26.30;73.80;;;;;;5039951;28;20056;-70
2022/07/24 12:11:24;;;;;;;3.22;2.00;;;26.30;74.20;;;;;;5049350;28;20032;-70
2022/07/24 12:13:52;;;;;;;3.22;1.92;;;26.30;74.40;;;;;;5037010;28;20025;-69
2022/07/24 12:16:25;;;;;;;3.42;2.15;;;26.40;75.20;;;;;;5040406;28;20108;-69
2022/07/24 12:18:50;;;;;;;2.05;1.70;;;26.40;74.40;;;;;;5037793;28;20056;-77
2022/07/24 12:21:18;;;;;;;6.28;1.80;;;26.40;74.20;;;;;;5035792;28;20028;-70
2022/07/24 12:23:46;;;;;;;4.18;1.80;;;26.40;73.90;;;;;;5040604;28;20025;-70
2022/07/24 12:26:11;;;;;;;3.97;2.15;;;26.40;73.80;;;;;;5051887;28;20036;-70
2022/07/24 12:28:37;;;;;;;3.40;1.95;;;26.50;74.10;;;;;;5045888;28;20078;-70
2022/07/24 12:31:08;;;;;;;3.70;1.80;;;26.50;73.50;;;;;;5048924;28;20028;-70
2022/07/24 12:33:34;;;;;;;3.70;2.08;;;26.50;73.40;;;;;;5041401;28;20029;-66
2022/07/24 12:36:14;;;;;;;4.80;1.60;;;26.50;73.30;;;;;;5038858;28;20043;-70
2022/07/24 12:39:00;;;;;;;3.35;2.05;;;26.50;73.20;;;;;;5036457;28;20474;-70
2022/07/24 12:41:27;;;;;;;8.68;2.17;;;26.50;73.30;;;;;;5040977;28;20045;-70